< < Back
Terminal Aerodrome Forecast


Current Version              Previous Versions:   1  2  3  4  5  6  7  8  9  

Terminal Aerodrome Forecast

713
FTUS42 KGSP 261513 AAD
TAFGSP
TAF AMD
KGSP 261513Z 2615/2712 24008KT P6SM SCT019 BKN024
      TEMPO 2615/2617 BKN019
     FM261700 19005KT P6SM VCSH BKN040
     FM262200 19004KT P6SM VCTS BKN050CB
     FM270200 22005KT P6SM SCT050 BKN100
     FM270900 24003KT 4SM BR OVC035=

Latest METAR

579
SAUS70 KWBC 270500 RRE
MTRGSP
METAR KGSP 270453Z AUTO 00000KT 5SM -RA BR BKN100 OVC120 20/19 A3005 RMK
AO2 RAB12E26B43 SLP162 P0001 T02000194 403060200


USA.gov is the U.S. government's official web portal to all federal, state and local government web resources and services.